sensor_id;sensor_type;location;lat;lon;timestamp;pressure;altitude;pressure_sealevel;temperature;humidity
55263;BME280;41125;48.752;9.168;2023-04-22T00:00:04;96239.19;;;11.77;61.22
55263;BME280;41125;48.752;9.168;2023-04-22T00:00:36;96238.34;;;11.76;61.31
55263;BME280;41125;48.752;9.168;2023-04-22T00:01:08;96236.47;;;11.77;61.50
55263;BME280;41125;48.752;9.168;2023-04-22T00:01:39;96241.06;;;11.76;61.08
55263;BME280;41125;48.752;9.168;2023-04-22T00:02:10;96234.84;;;11.75;61.32
55263;BME280;41125;48.752;9.168;2023-04-22T00:02:44;96229.72;;;11.74;61.55
55263;BME280;41125;48.752;9.168;2023-04-22T00:03:15;96240.59;;;11.74;61.44
55263;BME280;41125;48.752;9.168;2023-04-22T00:03:46;96239.00;;;11.73;61.51
55263;BME280;41125;48.752;9.168;2023-04-22T00:04:17;96237.38;;;11.72;61.33
55263;BME280;41125;48.752;9.168;2023-04-22T00:04:51;96239.31;;;11.71;61.77
55263;BME280;41125;48.752;9.168;2023-04-22T00:05:22;96241.22;;;11.71;61.87
55263;BME280;41125;48.752;9.168;2023-04-22T00:05:54;96234.19;;;11.70;62.06
55263;BME280;41125;48.752;9.168;2023-04-22T00:06:26;96240.41;;;11.70;62.05
55263;BME280;41125;48.752;9.168;2023-04-22T00:07:00;96235.78;;;11.71;62.54
55263;BME280;41125;48.752;9.168;2023-04-22T00:07:32;96233.88;;;11.71;62.53
55263;BME280;41125;48.752;9.168;2023-04-22T00:08:03;96242.81;;;11.72;62.62
55263;BME280;41125;48.752;9.168;2023-04-22T00:08:34;96242.81;;;11.72;62.62
55263;BME280;41125;48.752;9.168;2023-04-22T00:09:05;96242.81;;;11.72;62.49
55263;BME280;41125;48.752;9.168;2023-04-22T00:11:12;96246.66;;;11.71;62.94
55263;BME280;41125;48.752;9.168;2023-04-22T00:11:44;96245.06;;;11.70;63.06
55263;BME280;41125;48.752;9.168;2023-04-22T00:12:15;96243.13;;;11.70;63.16
55263;BME280;41125;48.752;9.168;2023-04-22T00:12:46;96243.94;;;11.71;63.20
55263;BME280;41125;48.752;9.168;2023-04-22T00:13:17;96242.03;;;11.71;63.52
55263;BME280;41125;48.752;9.168;2023-04-22T00:13:48;96239.31;;;11.71;63.53
55263;BME280;41125;48.752;9.168;2023-04-22T00:14:20;96237.38;;;11.72;63.75
55263;BME280;41125;48.752;9.168;2023-04-22T00:14:51;96242.81;;;11.72;63.82
55263;BME280;41125;48.752;9.168;2023-04-22T00:15:23;96242.03;;;11.71;63.61
55263;BME280;41125;48.752;9.168;2023-04-22T00:15:55;96242.81;;;11.72;63.99
55263;BME280;41125;48.752;9.168;2023-04-22T00:16:26;96245.53;;;11.72;64.04
55263;BME280;41125;48.752;9.168;2023-04-22T00:16:57;96246.34;;;11.72;63.99
55263;BME280;41125;48.752;9.168;2023-04-22T00:17:32;96245.53;;;11.72;64.10
55263;BME280;41125;48.752;9.168;2023-04-22T00:18:03;96243.13;;;11.70;63.76
55263;BME280;41125;48.752;9.168;2023-04-22T00:18:37;96234.19;;;11.70;64.05
55263;BME280;41125;48.752;9.168;2023-04-22T00:19:12;96234.97;;;11.70;64.24
55263;BME280;41125;48.752;9.168;2023-04-22T00:19:44;96238.00;;;11.69;64.31
55263;BME280;41125;48.752;9.168;2023-04-22T00:20:17;96240.72;;;11.69;64.08
55263;BME280;41125;48.752;9.168;2023-04-22T00:20:51;96238.00;;;11.69;64.63
55263;BME280;41125;48.752;9.168;2023-04-22T00:21:22;96245.06;;;11.70;64.63
55263;BME280;41125;48.752;9.168;2023-04-22T00:21:53;96241.53;;;11.69;64.70
55263;BME280;41125;48.752;9.168;2023-04-22T00:22:24;96237.69;;;11.70;64.76
55263;BME280;41125;48.752;9.168;2023-04-22T00:22:56;96251.78;;;11.72;65.05
55263;BME280;41125;48.752;9.168;2023-04-22T00:23:27;96243.63;;;11.72;64.94
55263;BME280;41125;48.752;9.168;2023-04-22T00:23:58;96242.19;;;11.75;65.49
55263;BME280;41125;48.752;9.168;2023-04-22T00:24:29;96246.50;;;11.76;65.17
55263;BME280;41125;48.752;9.168;2023-04-22T00:25:01;96238.34;;;11.76;65.45
55263;BME280;41125;48.752;9.168;2023-04-22T00:25:32;96243.00;;;11.75;65.28
55263;BME280;41125;48.752;9.168;2023-04-22T00:26:04;96241.06;;;11.76;65.31
55263;BME280;41125;48.752;9.168;2023-04-22T00:26:35;96247.62;;;11.75;65.35
55263;BME280;41125;48.752;9.168;2023-04-22T00:27:07;96238.34;;;11.76;65.59
55263;BME280;41125;48.752;9.168;2023-04-22T00:27:39;96247.03;;;11.78;65.51
55263;BME280;41125;48.752;9.168;2023-04-22T00:28:11;96245.44;;;11.77;65.52
55263;BME280;41125;48.752;9.168;2023-04-22T00:28:42;96248.59;;;11.79;65.73
55263;BME280;41125;48.752;9.168;2023-04-22T00:29:13;96243.97;;;11.80;65.64
55263;BME280;41125;48.752;9.168;2023-04-22T00:29:44;96243.16;;;11.79;65.75
55263;BME280;41125;48.752;9.168;2023-04-22T00:30:15;96238.88;;;11.78;65.81
55263;BME280;41125;48.752;9.168;2023-04-22T00:30:47;96244.31;;;11.78;65.92
55263;BME280;41125;48.752;9.168;2023-04-22T00:31:18;96243.78;;;11.76;66.15
55263;BME280;41125;48.752;9.168;2023-04-22T00:31:49;96240.78;;;11.78;66.85
55263;BME280;41125;48.752;9.168;2023-04-22T00:32:21;96246.50;;;11.76;66.51
55263;BME280;41125;48.752;9.168;2023-04-22T00:32:52;96255.19;;;11.78;67.06
55263;BME280;41125;48.752;9.168;2023-04-22T00:33:24;96248.16;;;11.77;67.28
55263;BME280;41125;48.752;9.168;2023-04-22T00:33:55;96244.91;;;11.75;66.69
55263;BME280;41125;48.752;9.168;2023-04-22T00:34:26;96248.75;;;11.74;67.02
55263;BME280;41125;48.752;9.168;2023-04-22T00:34:58;96249.84;;;11.73;66.99
55263;BME280;41125;48.752;9.168;2023-04-22T00:35:29;96246.66;;;11.71;66.86
55263;BME280;41125;48.752;9.168;2023-04-22T00:36:00;96253.06;;;11.75;68.02
55263;BME280;41125;48.752;9.168;2023-04-22T00:36:34;96256.31;;;11.77;68.38
55263;BME280;41125;48.752;9.168;2023-04-22T00:37:05;96246.50;;;11.76;67.86
55263;BME280;41125;48.752;9.168;2023-04-22T00:37:36;96260.09;;;11.76;68.43
55263;BME280;41125;48.752;9.168;2023-04-22T00:38:07;96247.94;;;11.73;67.78
55263;BME280;41125;48.752;9.168;2023-04-22T00:38:39;96248.25;;;11.72;68.19
55263;BME280;41125;48.752;9.168;2023-04-22T00:39:11;96250.97;;;11.72;68.31
55263;BME280;41125;48.752;9.168;2023-04-22T00:39:42;96247.12;;;11.73;68.40
55263;BME280;41125;48.752;9.168;2023-04-22T00:40:14;96247.44;;;11.71;68.38
55263;BME280;41125;48.752;9.168;2023-04-22T00:40:45;96241.22;;;11.71;68.56
55263;BME280;41125;48.752;9.168;2023-04-22T00:41:16;96235.78;;;11.71;68.52
55263;BME280;41125;48.752;9.168;2023-04-22T00:41:49;96243.94;;;11.71;68.91
55263;BME280;41125;48.752;9.168;2023-04-22T00:42:21;96245.06;;;11.70;68.77
55263;BME280;41125;48.752;9.168;2023-04-22T00:42:53;96238.81;;;11.69;68.65
55263;BME280;41125;48.752;9.168;2023-04-22T00:43:27;96233.38;;;11.69;68.74
55263;BME280;41125;48.752;9.168;2023-04-22T00:43:59;96232.56;;;11.69;68.91
55263;BME280;41125;48.752;9.168;2023-04-22T00:44:31;96236.41;;;11.68;68.88
55263;BME280;41125;48.752;9.168;2023-04-22T00:45:04;96240.25;;;11.67;69.29
55263;BME280;41125;48.752;9.168;2023-04-22T00:45:41;96237.53;;;11.67;69.26
55263;BME280;41125;48.752;9.168;2023-04-22T00:46:15;96238.63;;;11.66;69.15
55263;BME280;41125;48.752;9.168;2023-04-22T00:46:46;96237.03;;;11.65;69.25
55263;BME280;41125;48.752;9.168;2023-04-22T00:47:19;96240.88;;;11.64;69.90
55263;BME280;41125;48.752;9.168;2023-04-22T00:47:51;96238.16;;;11.64;69.42
55263;BME280;41125;48.752;9.168;2023-04-22T00:48:24;96238.78;;;11.61;69.50
55263;BME280;41125;48.752;9.168;2023-04-22T00:48:56;96236.06;;;11.61;69.61
55263;BME280;41125;48.752;9.168;2023-04-22T00:49:28;96239.28;;;11.63;70.24
55263;BME280;41125;48.752;9.168;2023-04-22T00:50:00;96234.63;;;11.63;70.20
55263;BME280;41125;48.752;9.168;2023-04-22T00:50:31;96242.47;;;11.65;70.22
55263;BME280;41125;48.752;9.168;2023-04-22T00:51:03;96235.94;;;11.66;70.07
55263;BME280;41125;48.752;9.168;2023-04-22T00:51:34;96234.81;;;11.67;69.94
55263;BME280;41125;48.752;9.168;2023-04-22T00:52:06;96236.41;;;11.68;70.13
55263;BME280;41125;48.752;9.168;2023-04-22T00:52:37;96238.00;;;11.69;70.66
55263;BME280;41125;48.752;9.168;2023-04-22T00:53:08;96237.88;;;11.74;70.60
55263;BME280;41125;48.752;9.168;2023-04-22T00:53:40;96242.50;;;11.73;70.30
55263;BME280;41125;48.752;9.168;2023-04-22T00:54:11;96239.78;;;11.73;70.31
55263;BME280;41125;48.752;9.168;2023-04-22T00:54:43;96234.34;;;11.73;70.45
55263;BME280;41125;48.752;9.168;2023-04-22T00:55:17;96243.31;;;11.74;70.26
55263;BME280;41125;48.752;9.168;2023-04-22T00:55:49;96237.28;;;11.77;70.41
55263;BME280;41125;48.752;9.168;2023-04-22T00:56:21;96238.88;;;11.78;70.24
55263;BME280;41125;48.752;9.168;2023-04-22T00:56:57;96240.78;;;11.78;70.36
55263;BME280;41125;48.752;9.168;2023-04-22T00:57:29;96231.84;;;11.77;70.35
55263;BME280;41125;48.752;9.168;2023-04-22T00:58:02;96235.16;;;11.74;70.16
55263;BME280;41125;48.752;9.168;2023-04-22T00:58:34;96237.38;;;11.72;70.15
55263;BME280;41125;48.752;9.168;2023-04-22T00:59:06;96242.81;;;11.72;70.18
55263;BME280;41125;48.752;9.168;2023-04-22T00:59:38;96239.62;;;11.70;70.30
55263;BME280;41125;48.752;9.168;2023-04-22T01:00:10;96243.44;;;11.69;70.54
55263;BME280;41125;48.752;9.168;2023-04-22T01:00:42;96232.56;;;11.69;70.20
55263;BME280;41125;48.752;9.168;2023-04-22T01:01:14;96238.81;;;11.69;70.58
55263;BME280;41125;48.752;9.168;2023-04-22T01:01:45;96233.38;;;11.69;70.46
55263;BME280;41125;48.752;9.168;2023-04-22T01:02:17;96233.38;;;11.69;70.52
55263;BME280;41125;48.752;9.168;2023-04-22T01:02:49;96236.59;;;11.71;70.77
55263;BME280;41125;48.752;9.168;2023-04-22T01:03:20;96233.06;;;11.71;70.95
55263;BME280;41125;48.752;9.168;2023-04-22T01:03:52;96236.91;;;11.70;70.55
55263;BME280;41125;48.752;9.168;2023-04-22T01:04:27;96238.50;;;11.71;70.94
55263;BME280;41125;48.752;9.168;2023-04-22T01:04:59;96230.34;;;11.71;71.10
55263;BME280;41125;48.752;9.168;2023-04-22T01:05:32;96236.91;;;11.70;71.20
55263;BME280;41125;48.752;9.168;2023-04-22T01:06:03;96234.66;;;11.72;70.75
55263;BME280;41125;48.752;9.168;2023-04-22T01:06:36;96235.47;;;11.72;70.92
55263;BME280;41125;48.752;9.168;2023-04-22T01:07:08;96233.56;;;11.73;70.77
55263;BME280;41125;48.752;9.168;2023-04-22T01:07:39;96231.62;;;11.73;70.67
55263;BME280;41125;48.752;9.168;2023-04-22T01:08:11;96238.50;;;11.71;70.79
55263;BME280;41125;48.752;9.168;2023-04-22T01:08:42;96234.19;;;11.70;70.70
55263;BME280;41125;48.752;9.168;2023-04-22T01:09:15;96227.63;;;11.71;70.85
55263;BME280;41125;48.752;9.168;2023-04-22T01:09:47;96229.22;;;11.72;70.79
55263;BME280;41125;48.752;9.168;2023-04-22T01:10:18;96233.06;;;11.71;70.60
55263;BME280;41125;48.752;9.168;2023-04-22T01:10:50;96234.19;;;11.70;70.68
55263;BME280;41125;48.752;9.168;2023-04-22T01:11:21;96233.56;;;11.73;71.00
55263;BME280;41125;48.752;9.168;2023-04-22T01:11:53;96230.03;;;11.72;70.92
55263;BME280;41125;48.752;9.168;2023-04-22T01:12:31;96231.16;;;11.71;70.79
55263;BME280;41125;48.752;9.168;2023-04-22T01:13:02;96230.84;;;11.73;71.02
55263;BME280;41125;48.752;9.168;2023-04-22T01:13:33;96232.25;;;11.70;70.68
55263;BME280;41125;48.752;9.168;2023-04-22T01:14:08;96232.56;;;11.69;70.64
55263;BME280;41125;48.752;9.168;2023-04-22T01:14:40;96230.19;;;11.67;70.57
55263;BME280;41125;48.752;9.168;2023-04-22T01:15:12;96230.97;;;11.68;70.70
55263;BME280;41125;48.752;9.168;2023-04-22T01:15:43;96229.38;;;11.67;70.57
55263;BME280;41125;48.752;9.168;2023-04-22T01:16:15;96235.59;;;11.67;70.57
55263;BME280;41125;48.752;9.168;2023-04-22T01:16:47;96230.50;;;11.66;70.66
55263;BME280;41125;48.752;9.168;2023-04-22T01:17:19;96233.22;;;11.66;70.68
55263;BME280;41125;48.752;9.168;2023-04-22T01:17:52;96229.69;;;11.65;70.90
55263;BME280;41125;48.752;9.168;2023-04-22T01:18:26;96234.31;;;11.65;70.93
55263;BME280;41125;48.752;9.168;2023-04-22T01:18:57;96235.44;;;11.64;70.88
55263;BME280;41125;48.752;9.168;2023-04-22T01:19:28;96231.13;;;11.63;70.87
55263;BME280;41125;48.752;9.168;2023-04-22T01:19:59;96230.63;;;11.61;70.76
55263;BME280;41125;48.752;9.168;2023-04-22T01:20:33;96227.44;;;11.59;71.00
55263;BME280;41125;48.752;9.168;2023-04-22T01:21:06;96231.25;;;11.58;71.18
55263;BME280;41125;48.752;9.168;2023-04-22T01:21:38;96235.09;;;11.57;71.11
55263;BME280;41125;48.752;9.168;2023-04-22T01:22:12;96232.69;;;11.55;71.41
55263;BME280;41125;48.752;9.168;2023-04-22T01:22:44;96242.75;;;11.55;71.55
55263;BME280;41125;48.752;9.168;2023-04-22T01:23:20;96235.72;;;11.54;71.40
55263;BME280;41125;48.752;9.168;2023-04-22T01:23:52;96234.91;;;11.53;71.46
55263;BME280;41125;48.752;9.168;2023-04-22T01:24:23;96237.16;;;11.51;71.38
55263;BME280;41125;48.752;9.168;2023-04-22T01:24:55;96237.47;;;11.50;71.62
55263;BME280;41125;48.752;9.168;2023-04-22T01:25:26;96234.75;;;11.50;71.48
55263;BME280;41125;48.752;9.168;2023-04-22T01:26:01;96231.53;;;11.48;71.40
55263;BME280;41125;48.752;9.168;2023-04-22T01:26:33;96231.53;;;11.48;71.59
55263;BME280;41125;48.752;9.168;2023-04-22T01:27:06;96227.69;;;11.49;72.09
55263;BME280;41125;48.752;9.168;2023-04-22T01:27:39;96235.84;;;11.49;71.92
55263;BME280;41125;48.752;9.168;2023-04-22T01:28:11;96233.13;;;11.49;71.92
55263;BME280;41125;48.752;9.168;2023-04-22T01:28:42;96230.72;;;11.47;71.84
55263;BME280;41125;48.752;9.168;2023-04-22T01:29:14;96244.31;;;11.47;71.89
55263;BME280;41125;48.752;9.168;2023-04-22T01:29:46;96239.19;;;11.46;71.86
55263;BME280;41125;48.752;9.168;2023-04-22T01:30:18;96237.59;;;11.45;71.84
55263;BME280;41125;48.752;9.168;2023-04-22T01:30:50;96236.00;;;11.43;71.87
55263;BME280;41125;48.752;9.168;2023-04-22T01:31:22;96233.63;;;11.42;71.82
55263;BME280;41125;48.752;9.168;2023-04-22T01:31:54;96238.25;;;11.41;71.92
55263;BME280;41125;48.752;9.168;2023-04-22T01:32:26;96238.25;;;11.41;72.04
55263;BME280;41125;48.752;9.168;2023-04-22T01:33:00;96236.66;;;11.40;71.84
55263;BME280;41125;48.752;9.168;2023-04-22T01:33:33;96242.09;;;11.40;72.12
55263;BME280;41125;48.752;9.168;2023-04-22T01:34:05;96243.19;;;11.39;72.02
55263;BME280;41125;48.752;9.168;2023-04-22T01:34:37;96236.16;;;11.38;72.11
55263;BME280;41125;48.752;9.168;2023-04-22T01:35:09;96233.44;;;11.38;72.27
55263;BME280;41125;48.752;9.168;2023-04-22T01:35:41;96238.38;;;11.36;72.25
55263;BME280;41125;48.752;9.168;2023-04-22T01:36:15;96232.62;;;11.38;72.39
55263;BME280;41125;48.752;9.168;2023-04-22T01:36:47;96237.28;;;11.37;72.49
55263;BME280;41125;48.752;9.168;2023-04-22T01:37:23;96233.44;;;11.38;72.57
55263;BME280;41125;48.752;9.168;2023-04-22T01:37:54;96237.28;;;11.37;72.69
55263;BME280;41125;48.752;9.168;2023-04-22T01:38:28;96239.69;;;11.39;72.45
55263;BME280;41125;48.752;9.168;2023-04-22T01:38:59;96236.66;;;11.40;72.93
55263;BME280;41125;48.752;9.168;2023-04-22T01:39:31;96238.25;;;11.41;72.62
55263;BME280;41125;48.752;9.168;2023-04-22T01:40:03;96232.97;;;11.45;72.88
55263;BME280;41125;48.752;9.168;2023-04-22T01:40:35;96231.53;;;11.48;72.79
55263;BME280;41125;48.752;9.168;2023-04-22T01:41:07;96236.47;;;11.46;72.61
55263;BME280;41125;48.752;9.168;2023-04-22T01:41:40;96234.88;;;11.45;72.25
55263;BME280;41125;48.752;9.168;2023-04-22T01:42:11;96230.09;;;11.41;72.25
55263;BME280;41125;48.752;9.168;2023-04-22T01:42:44;96238.25;;;11.41;72.16
55263;BME280;41125;48.752;9.168;2023-04-22T01:43:15;96232.81;;;11.41;72.42
55263;BME280;41125;48.752;9.168;2023-04-22T01:43:47;96228.50;;;11.40;72.26
55263;BME280;41125;48.752;9.168;2023-04-22T01:44:18;96236.66;;;11.40;72.78
55263;BME280;41125;48.752;9.168;2023-04-22T01:44:50;96233.94;;;11.40;72.63
55263;BME280;41125;48.752;9.168;2023-04-22T01:45:21;96229.59;;;11.39;72.77
55263;BME280;41125;48.752;9.168;2023-04-22T01:45:52;96228.00;;;11.38;72.61
55263;BME280;41125;48.752;9.168;2023-04-22T01:46:24;96237.28;;;11.37;72.70
55263;BME280;41125;48.752;9.168;2023-04-22T01:46:57;96237.28;;;11.37;72.81
55263;BME280;41125;48.752;9.168;2023-04-22T01:47:37;96243.00;;;11.36;72.78
55263;BME280;41125;48.752;9.168;2023-04-22T01:48:09;96237.91;;;11.34;72.68
55263;BME280;41125;48.752;9.168;2023-04-22T01:48:41;96243.31;;;11.34;72.86
55263;BME280;41125;48.752;9.168;2023-04-22T01:49:12;96240.62;;;11.34;72.68
55263;BME280;41125;48.752;9.168;2023-04-22T01:49:43;96236.28;;;11.33;72.99
55263;BME280;41125;48.752;9.168;2023-04-22T01:50:15;96240.12;;;11.32;72.80
55263;BME280;41125;48.752;9.168;2023-04-22T01:50:46;96241.22;;;11.31;72.68
55263;BME280;41125;48.752;9.168;2023-04-22T01:51:18;96236.91;;;11.30;72.73
55263;BME280;41125;48.752;9.168;2023-04-22T01:51:57;96235.31;;;11.29;72.68
55263;BME280;41125;48.752;9.168;2023-04-22T01:52:29;96239.12;;;11.28;72.69
55263;BME280;41125;48.752;9.168;2023-04-22T01:53:01;96240.75;;;11.29;72.73
55263;BME280;41125;48.752;9.168;2023-04-22T01:53:32;96232.91;;;11.28;72.86
55263;BME280;41125;48.752;9.168;2023-04-22T01:54:04;96241.53;;;11.30;72.93
55263;BME280;41125;48.752;9.168;2023-04-22T01:54:35;96233.72;;;11.28;72.75
55263;BME280;41125;48.752;9.168;2023-04-22T01:55:08;96241.84;;;11.28;72.69
55263;BME280;41125;48.752;9.168;2023-04-22T01:55:39;96229.41;;;11.27;72.62
55263;BME280;41125;48.752;9.168;2023-04-22T01:56:11;96232.91;;;11.28;72.68
55263;BME280;41125;48.752;9.168;2023-04-22T01:56:54;96238.34;;;11.28;72.93
55263;BME280;41125;48.752;9.168;2023-04-22T01:57:25;96233.72;;;11.28;72.90
55263;BME280;41125;48.752;9.168;2023-04-22T01:57:56;96234.50;;;11.29;72.71
55263;BME280;41125;48.752;9.168;2023-04-22T01:58:28;96231.78;;;11.29;72.87
55263;BME280;41125;48.752;9.168;2023-04-22T01:59:03;96232.09;;;11.27;72.53
55263;BME280;41125;48.752;9.168;2023-04-22T01:59:35;96226.69;;;11.27;72.48
55263;BME280;41125;48.752;9.168;2023-04-22T02:00:07;96235.94;;;11.26;72.72
55263;BME280;41125;48.752;9.168;2023-04-22T02:00:39;96231.62;;;11.25;72.91
55263;BME280;41125;48.752;9.168;2023-04-22T02:01:11;96235.44;;;11.24;73.15
55263;BME280;41125;48.752;9.168;2023-04-22T02:01:43;96240.38;;;11.22;72.91
55263;BME280;41125;48.752;9.168;2023-04-22T02:02:14;96238.78;;;11.21;72.90
55263;BME280;41125;48.752;9.168;2023-04-22T02:02:45;96235.56;;;11.19;72.95
55263;BME280;41125;48.752;9.168;2023-04-22T02:03:17;96238.59;;;11.18;72.73
55263;BME280;41125;48.752;9.168;2023-04-22T02:03:48;96243.22;;;11.17;72.89
55263;BME280;41125;48.752;9.168;2023-04-22T02:04:19;96238.91;;;11.16;72.89
55263;BME280;41125;48.752;9.168;2023-04-22T02:04:51;96241.63;;;11.16;73.20
55263;BME280;41125;48.752;9.168;2023-04-22T02:05:23;96249.28;;;11.14;73.05
55263;BME280;41125;48.752;9.168;2023-04-22T02:05:54;96238.44;;;11.14;73.09
55263;BME280;41125;48.752;9.168;2023-04-22T02:06:25;96253.91;;;11.14;73.00
55263;BME280;41125;48.752;9.168;2023-04-22T02:06:57;96244.97;;;11.13;73.46
55263;BME280;41125;48.752;9.168;2023-04-22T02:07:28;96247.69;;;11.13;73.26
55263;BME280;41125;48.752;9.168;2023-04-22T02:08:00;96239.53;;;11.13;73.15
55263;BME280;41125;48.752;9.168;2023-04-22T02:08:31;96236.81;;;11.13;73.26
55263;BME280;41125;48.752;9.168;2023-04-22T02:09:02;96244.97;;;11.13;73.19
55263;BME280;41125;48.752;9.168;2023-04-22T02:09:37;96241.13;;;11.14;72.94
55263;BME280;41125;48.752;9.168;2023-04-22T02:10:09;96239.53;;;11.13;72.86
55263;BME280;41125;48.752;9.168;2023-04-22T02:10:42;96238.44;;;11.14;72.75
55263;BME280;41125;48.752;9.168;2023-04-22T02:11:13;96239.22;;;11.15;72.83
55263;BME280;41125;48.752;9.168;2023-04-22T02:11:44;96240.03;;;11.15;72.63
55263;BME280;41125;48.752;9.168;2023-04-22T02:12:16;96238.44;;;11.14;72.48
55263;BME280;41125;48.752;9.168;2023-04-22T02:12:47;96241.13;;;11.14;72.71
55263;BME280;41125;48.752;9.168;2023-04-22T02:13:19;96239.53;;;11.13;72.63
55263;BME280;41125;48.752;9.168;2023-04-22T02:13:50;96234.09;;;11.13;72.43
55263;BME280;41125;48.752;9.168;2023-04-22T02:14:22;96243.06;;;11.14;72.31
55263;BME280;41125;48.752;9.168;2023-04-22T02:14:53;96246.56;;;11.14;72.38
55263;BME280;41125;48.752;9.168;2023-04-22T02:15:27;96239.53;;;11.13;72.53
55263;BME280;41125;48.752;9.168;2023-04-22T02:15:58;96246.06;;;11.12;72.35
55263;BME280;41125;48.752;9.168;2023-04-22T02:16:31;96243.37;;;11.12;72.17
55263;BME280;41125;48.752;9.168;2023-04-22T02:17:02;96244.97;;;11.13;72.35
55263;BME280;41125;48.752;9.168;2023-04-22T02:17:35;96236.81;;;11.13;72.29
55263;BME280;41125;48.752;9.168;2023-04-22T02:18:07;96241.13;;;11.14;72.07
55263;BME280;41125;48.752;9.168;2023-04-22T02:18:40;96249.28;;;11.14;72.47
55263;BME280;41125;48.752;9.168;2023-04-22T02:19:11;96249.28;;;11.14;71.98
55263;BME280;41125;48.752;9.168;2023-04-22T02:19:42;96246.56;;;11.14;72.26
55263;BME280;41125;48.752;9.168;2023-04-22T02:20:14;96249.28;;;11.14;71.76
55263;BME280;41125;48.752;9.168;2023-04-22T02:20:45;96256.31;;;11.15;71.75
55263;BME280;41125;48.752;9.168;2023-04-22T02:21:16;96243.84;;;11.14;72.08
55263;BME280;41125;48.752;9.168;2023-04-22T02:21:48;96254.41;;;11.16;71.76
55263;BME280;41125;48.752;9.168;2023-04-22T02:22:19;96252.50;;;11.16;72.28
55263;BME280;41125;48.752;9.168;2023-04-22T02:22:51;96241.63;;;11.16;72.20
55263;BME280;41125;48.752;9.168;2023-04-22T02:23:23;96243.22;;;11.17;72.11
55263;BME280;41125;48.752;9.168;2023-04-22T02:23:55;96248.16;;;11.15;72.22
55263;BME280;41125;48.752;9.168;2023-04-22T02:24:27;96256.31;;;11.15;72.42
55263;BME280;41125;48.752;9.168;2023-04-22T02:24:58;96240.03;;;11.15;72.83
55263;BME280;41125;48.752;9.168;2023-04-22T02:25:30;96256.31;;;11.15;72.63
55263;BME280;41125;48.752;9.168;2023-04-22T02:26:02;96254.72;;;11.14;72.87
55263;BME280;41125;48.752;9.168;2023-04-22T02:26:33;96253.09;;;11.13;72.65
55263;BME280;41125;48.752;9.168;2023-04-22T02:27:04;96249.28;;;11.14;73.08
55263;BME280;41125;48.752;9.168;2023-04-22T02:27:36;96253.09;;;11.13;72.70
55263;BME280;41125;48.752;9.168;2023-04-22T02:28:08;96256.94;;;11.12;72.69
55263;BME280;41125;48.752;9.168;2023-04-22T02:28:39;96257.75;;;11.13;72.71
55263;BME280;41125;48.752;9.168;2023-04-22T02:29:11;96255.34;;;11.11;73.10
55263;BME280;41125;48.752;9.168;2023-04-22T02:29:43;96255.34;;;11.11;72.91
55263;BME280;41125;48.752;9.168;2023-04-22T02:30:14;96257.75;;;11.13;72.95
55263;BME280;41125;48.752;9.168;2023-04-22T02:30:46;96256.94;;;11.12;72.49
55263;BME280;41125;48.752;9.168;2023-04-22T02:31:17;96259.34;;;11.14;72.54
55263;BME280;41125;48.752;9.168;2023-04-22T02:31:49;96263.97;;;11.13;72.67
55263;BME280;41125;48.752;9.168;2023-04-22T02:32:20;96246.06;;;11.12;72.33
55263;BME280;41125;48.752;9.168;2023-04-22T02:32:51;96249.91;;;11.11;72.34
55263;BME280;41125;48.752;9.168;2023-04-22T02:33:26;96254.53;;;11.11;71.97
55263;BME280;41125;48.752;9.168;2023-04-22T02:34:00;96259.16;;;11.10;72.32
55263;BME280;41125;48.752;9.168;2023-04-22T02:34:31;96254.06;;;11.08;72.44
55263;BME280;41125;48.752;9.168;2023-04-22T02:35:03;96263.00;;;11.09;72.33
55263;BME280;41125;48.752;9.168;2023-04-22T02:35:35;96253.56;;;11.06;72.12
55263;BME280;41125;48.752;9.168;2023-04-22T02:36:07;96259.00;;;11.06;72.62
55263;BME280;41125;48.752;9.168;2023-04-22T02:36:38;96257.41;;;11.05;72.54
55263;BME280;41125;48.752;9.168;2023-04-22T02:37:09;96257.72;;;11.04;72.17
55263;BME280;41125;48.752;9.168;2023-04-22T02:37:40;96256.59;;;11.05;72.11
55263;BME280;41125;48.752;9.168;2023-04-22T02:38:11;96259.31;;;11.05;72.19
55263;BME280;41125;48.752;9.168;2023-04-22T02:38:46;96260.44;;;11.04;72.40
55263;BME280;41125;48.752;9.168;2023-04-22T02:39:17;96258.81;;;11.03;72.34
55263;BME280;41125;48.752;9.168;2023-04-22T02:39:49;96268.09;;;11.02;72.23
55263;BME280;41125;48.752;9.168;2023-04-22T02:40:21;96255.62;;;11.01;72.41
55263;BME280;41125;48.752;9.168;2023-04-22T02:40:52;96264.88;;;11.00;72.45
55263;BME280;41125;48.752;9.168;2023-04-22T02:41:23;96265.19;;;10.98;72.45
55263;BME280;41125;48.752;9.168;2023-04-22T02:41:55;96262.78;;;10.97;72.77
55263;BME280;41125;48.752;9.168;2023-04-22T02:42:26;96262.28;;;10.95;73.21
55263;BME280;41125;48.752;9.168;2023-04-22T02:42:57;96262.91;;;10.92;73.02
55263;BME280;41125;48.752;9.168;2023-04-22T02:43:28;96267.53;;;10.91;72.83
55263;BME280;41125;48.752;9.168;2023-04-22T02:44:00;96265.94;;;10.90;72.89
55263;BME280;41125;48.752;9.168;2023-04-22T02:44:31;96263.53;;;10.89;72.94
55263;BME280;41125;48.752;9.168;2023-04-22T02:45:03;96264.31;;;10.89;73.17
55263;BME280;41125;48.752;9.168;2023-04-22T02:45:34;96265.13;;;10.90;72.94
55263;BME280;41125;48.752;9.168;2023-04-22T02:46:09;96265.13;;;10.90;73.14
55263;BME280;41125;48.752;9.168;2023-04-22T02:46:43;96266.72;;;10.91;72.89
55263;BME280;41125;48.752;9.168;2023-04-22T02:47:16;96269.13;;;10.92;73.13
55263;BME280;41125;48.752;9.168;2023-04-22T02:47:47;96269.31;;;10.96;73.03
55263;BME280;41125;48.752;9.168;2023-04-22T02:48:18;96264.69;;;10.96;73.33
55263;BME280;41125;48.752;9.168;2023-04-22T02:48:50;96269.00;;;10.97;73.15
55263;BME280;41125;48.752;9.168;2023-04-22T02:49:21;96263.28;;;10.99;73.24
55263;BME280;41125;48.752;9.168;2023-04-22T02:49:52;96265.97;;;10.99;73.12
55263;BME280;41125;48.752;9.168;2023-04-22T02:50:23;96267.09;;;10.98;73.24
55263;BME280;41125;48.752;9.168;2023-04-22T02:50:55;96264.38;;;10.98;73.06